createdAt,value
2018-09-08T00:00:46.594Z,932.31
2018-09-08T00:01:46.634Z,932.29
2018-09-08T00:02:46.990Z,932.32
2018-09-08T00:03:46.735Z,932.36
2018-09-08T00:04:46.786Z,932.35
2018-09-08T00:05:46.807Z,932.36
2018-09-08T00:06:46.844Z,932.36
2018-09-08T00:07:46.925Z,932.37
2018-09-08T00:08:46.947Z,932.33
2018-09-08T00:09:47.313Z,932.38
2018-09-08T00:10:47.035Z,932.37
2018-09-08T00:11:47.109Z,932.38
2018-09-08T00:12:47.094Z,932.37
2018-09-08T00:13:47.151Z,932.38
2018-09-08T00:14:47.182Z,932.41
2018-09-08T00:15:47.536Z,932.40
2018-09-08T00:16:47.286Z,932.42
2018-09-08T00:17:47.324Z,932.40
2018-09-08T00:18:47.372Z,932.44
2018-09-08T00:19:47.406Z,932.46
2018-09-08T00:20:47.462Z,932.46
2018-09-08T00:21:47.801Z,932.49
2018-09-08T00:22:47.829Z,932.52
2018-09-08T00:23:47.579Z,932.54
2018-09-08T00:24:47.644Z,932.53
2018-09-08T00:25:47.677Z,932.51
2018-09-08T00:26:47.714Z,932.60
2018-09-08T00:27:47.744Z,932.57
2018-09-08T00:28:47.797Z,932.58
2018-09-08T00:29:47.817Z,932.60
2018-09-08T00:30:47.881Z,932.62
2018-09-08T00:31:47.943Z,932.63
2018-09-08T00:32:47.946Z,932.62
2018-09-08T00:33:47.993Z,932.64
2018-09-08T00:34:48.093Z,932.63
2018-09-08T00:35:48.094Z,932.64
2018-09-08T00:36:48.174Z,932.65
2018-09-08T00:37:48.186Z,932.65
2018-09-08T00:38:48.274Z,932.64
2018-09-08T00:39:48.251Z,932.65
2018-09-08T00:40:48.286Z,932.61
2018-09-08T00:41:48.349Z,932.62
2018-09-08T00:42:48.410Z,932.67
2018-09-08T00:43:48.727Z,932.64
2018-09-08T00:44:48.492Z,932.65
2018-09-08T00:45:48.582Z,932.65
2018-09-08T00:46:48.553Z,932.69
2018-09-08T00:47:48.607Z,932.66
2018-09-08T00:48:48.646Z,932.66
2018-09-08T00:49:48.703Z,932.69
2018-09-08T00:50:48.769Z,932.69
2018-09-08T00:51:48.789Z,932.70
2018-09-08T00:52:48.804Z,932.69
2018-09-08T00:53:49.161Z,932.71
2018-09-08T00:54:48.916Z,932.73
2018-09-08T00:55:48.920Z,932.69
2018-09-08T00:56:48.985Z,932.68
2018-09-08T00:57:49.063Z,932.71
2018-09-08T00:58:49.078Z,932.72
2018-09-08T00:59:49.126Z,932.69
2018-09-08T01:00:49.476Z,932.72
2018-09-08T01:01:49.213Z,932.75
2018-09-08T01:02:49.259Z,932.74
2018-09-08T01:03:49.406Z,932.75
2018-09-08T01:04:49.327Z,932.74
2018-09-08T01:05:49.373Z,932.67
2018-09-08T01:06:49.401Z,932.76
2018-09-08T01:07:49.454Z,932.74
2018-09-08T01:08:49.543Z,932.74
2018-09-08T01:09:49.549Z,932.75
2018-09-08T01:10:49.551Z,932.76
2018-09-08T01:11:49.633Z,932.70
2018-09-08T01:12:49.664Z,932.72
2018-09-08T01:13:49.690Z,932.74
2018-09-08T01:14:49.740Z,932.72
2018-09-08T01:15:50.091Z,932.72
2018-09-08T01:16:49.810Z,932.74
2018-09-08T01:17:49.877Z,932.72
2018-09-08T01:18:49.932Z,932.72
2018-09-08T01:19:49.948Z,932.72
2018-09-08T01:20:49.991Z,932.74
2018-09-08T01:21:50.079Z,932.72
2018-09-08T01:22:50.138Z,932.69
2018-09-08T01:23:50.117Z,932.73
2018-09-08T01:24:50.171Z,932.73
2018-09-08T01:25:50.489Z,932.72
2018-09-08T01:26:50.290Z,932.76
2018-09-08T01:27:55.336Z,932.74
2018-09-08T01:28:50.311Z,932.71
2018-09-08T01:29:50.374Z,932.70
2018-09-08T01:30:50.419Z,932.71
2018-09-08T01:31:50.449Z,932.72
2018-09-08T01:32:50.485Z,932.70
2018-09-08T01:33:50.518Z,932.67
2018-09-08T01:34:50.574Z,932.70
2018-09-08T01:35:50.910Z,932.68
2018-09-08T01:36:50.681Z,932.65
2018-09-08T01:37:50.726Z,932.65
2018-09-08T01:38:50.747Z,932.65
2018-09-08T01:39:50.812Z,932.64
2018-09-08T01:40:50.853Z,932.64
2018-09-08T01:41:50.867Z,932.62
2018-09-08T01:42:50.913Z,932.59
2018-09-08T01:43:50.979Z,932.68
2018-09-08T01:44:50.979Z,932.66
2018-09-08T01:45:51.043Z,932.65
2018-09-08T01:46:51.383Z,932.64
2018-09-08T01:47:51.137Z,932.65
2018-09-08T01:48:51.171Z,932.68
2018-09-08T01:49:51.201Z,932.72
2018-09-08T01:50:51.252Z,932.72
2018-09-08T01:51:51.289Z,932.70
2018-09-08T01:52:51.636Z,932.69
2018-09-08T01:53:51.408Z,932.70
2018-09-08T01:54:51.426Z,932.73
2018-09-08T01:55:51.456Z,932.75
2018-09-08T01:56:51.500Z,932.74
2018-09-08T01:57:51.542Z,932.67
2018-09-08T01:58:51.892Z,932.70
2018-09-08T01:59:51.634Z,932.66
2018-09-08T02:00:51.672Z,932.65
2018-09-08T02:01:51.690Z,932.68
2018-09-08T02:02:51.748Z,932.64
2018-09-08T02:03:51.826Z,932.61
2018-09-08T02:04:51.873Z,932.63
2018-09-08T02:05:51.876Z,932.60
2018-09-08T02:06:51.915Z,932.62
2018-09-08T02:07:51.957Z,932.59
2018-09-08T02:08:52.282Z,932.57
2018-09-08T02:09:52.043Z,932.57
2018-09-08T02:10:52.061Z,932.60
2018-09-08T02:11:52.168Z,932.61
2018-09-08T02:12:52.172Z,932.62
2018-09-08T02:13:52.173Z,932.59
2018-09-08T02:14:52.521Z,932.55
2018-09-08T02:15:52.261Z,932.50
2018-09-08T02:16:52.322Z,932.50
2018-09-08T02:17:52.373Z,932.46
2018-09-08T02:18:52.399Z,932.44
2018-09-08T02:19:52.499Z,932.46
2018-09-08T02:20:52.525Z,932.44
2018-09-08T02:21:52.527Z,932.41
2018-09-08T02:22:52.565Z,932.44
2018-09-08T02:23:52.651Z,932.40
2018-09-08T02:24:52.646Z,932.39
2018-09-08T02:25:52.999Z,932.40
2018-09-08T02:26:52.725Z,932.43
2018-09-08T02:27:52.762Z,932.39
2018-09-08T02:28:52.803Z,932.37
2018-09-08T02:29:52.864Z,932.36
2018-09-08T02:30:52.894Z,932.36
2018-09-08T02:31:52.957Z,932.36
2018-09-08T02:32:52.996Z,932.37
2018-09-08T02:33:53.016Z,932.36
2018-09-08T02:34:53.049Z,932.32
2018-09-08T02:35:53.089Z,932.34
2018-09-08T02:36:53.151Z,932.32
2018-09-08T02:37:53.429Z,932.33
2018-09-08T02:38:53.219Z,932.30
2018-09-08T02:39:53.264Z,932.30
2018-09-08T02:40:53.302Z,932.30
2018-09-08T02:41:53.357Z,932.30
2018-09-08T02:42:53.398Z,932.31
2018-09-08T02:43:53.704Z,932.28
2018-09-08T02:44:53.493Z,932.30
2018-09-08T02:45:53.524Z,932.30
2018-09-08T02:46:53.574Z,932.29
2018-09-08T02:47:53.602Z,932.29
2018-09-08T02:48:53.640Z,932.29
2018-09-08T02:49:53.697Z,932.28
2018-09-08T02:50:53.742Z,932.27
2018-09-08T02:51:53.779Z,932.24
2018-09-08T02:52:53.810Z,932.27
2018-09-08T02:53:54.112Z,932.23
2018-09-08T02:54:53.894Z,932.24
2018-09-08T02:55:53.932Z,932.27
2018-09-08T02:56:53.979Z,932.22
2018-09-08T02:57:54.003Z,932.22
2018-09-08T02:58:54.340Z,932.20
2018-09-08T02:59:54.101Z,932.22
2018-09-08T03:00:54.141Z,932.20
2018-09-08T03:01:54.190Z,932.21
2018-09-08T03:02:54.229Z,932.20
2018-09-08T03:03:54.513Z,932.18
2018-09-08T03:04:54.318Z,932.20
2018-09-08T03:05:54.346Z,932.21
2018-09-08T03:06:54.408Z,932.19
2018-09-08T03:07:54.491Z,932.19
2018-09-08T03:08:54.625Z,932.21
2018-09-08T03:09:54.505Z,932.20
2018-09-08T03:10:54.590Z,932.16
2018-09-08T03:11:54.599Z,932.18
2018-09-08T03:12:54.664Z,932.12
2018-09-08T03:13:54.983Z,932.11
2018-09-08T03:14:54.776Z,932.11
2018-09-08T03:15:54.763Z,932.05
2018-09-08T03:16:54.824Z,932.07
2018-09-08T03:17:54.871Z,932.08
2018-09-08T03:18:54.894Z,932.08
2018-09-08T03:19:54.955Z,932.06
2018-09-08T03:20:55.016Z,932.06
2018-09-08T03:21:55.011Z,932.06
2018-09-08T03:22:55.096Z,932.03
2018-09-08T03:23:55.359Z,932.03
2018-09-08T03:24:55.153Z,932.00
2018-09-08T03:25:55.168Z,932.02
2018-09-08T03:26:55.217Z,932.03
2018-09-08T03:27:55.259Z,931.99
2018-09-08T03:28:55.302Z,931.98
2018-09-08T03:29:55.399Z,931.96
2018-09-08T03:30:55.399Z,931.94
2018-09-08T03:31:55.477Z,931.92
2018-09-08T03:32:55.466Z,931.96
2018-09-08T03:33:55.548Z,931.95
2018-09-08T03:34:55.911Z,931.91
2018-09-08T03:35:55.584Z,931.91
2018-09-08T03:36:55.660Z,931.92
2018-09-08T03:37:55.712Z,931.92
2018-09-08T03:38:55.729Z,931.91
2018-09-08T03:39:55.770Z,931.89
2018-09-08T03:40:55.820Z,931.91
2018-09-08T03:41:55.892Z,931.91
2018-09-08T03:42:55.890Z,931.88
2018-09-08T03:43:55.940Z,931.89
2018-09-08T03:44:55.973Z,931.85
2018-09-08T03:45:56.016Z,931.89
2018-09-08T03:46:56.068Z,931.82
2018-09-08T03:47:56.104Z,931.84
2018-09-08T03:48:56.137Z,931.84
2018-09-08T03:49:56.169Z,931.78
2018-09-08T03:50:56.765Z,931.79
2018-09-08T03:51:56.273Z,931.81
2018-09-08T03:52:56.309Z,931.77
2018-09-08T03:53:56.385Z,931.79
2018-09-08T03:54:56.388Z,931.73
2018-09-08T03:55:56.427Z,931.72
2018-09-08T03:56:56.465Z,931.68
2018-09-08T03:57:56.520Z,931.67
2018-09-08T03:58:56.586Z,931.65
2018-09-08T03:59:56.633Z,931.65
2018-09-08T04:00:56.625Z,931.65
2018-09-08T04:01:56.911Z,931.66
2018-09-08T04:02:56.713Z,931.62
2018-09-08T04:03:56.783Z,931.63
2018-09-08T04:04:56.845Z,931.64
2018-09-08T04:05:56.838Z,931.62
2018-09-08T04:06:56.925Z,931.61
2018-09-08T04:07:56.919Z,931.58
2018-09-08T04:08:57.020Z,931.58
2018-09-08T04:09:57.015Z,931.56
2018-09-08T04:10:57.055Z,931.53
2018-09-08T04:11:57.074Z,931.52
2018-09-08T04:12:57.140Z,931.50
2018-09-08T04:13:57.407Z,931.49
2018-09-08T04:14:57.205Z,931.45
2018-09-08T04:15:57.297Z,931.47
2018-09-08T04:16:57.290Z,931.46
2018-09-08T04:17:57.392Z,931.47
2018-09-08T04:18:57.397Z,931.45
2018-09-08T04:19:57.536Z,931.41
2018-09-08T04:20:57.478Z,931.42
2018-09-08T04:21:57.501Z,931.42
2018-09-08T04:22:57.547Z,931.39
2018-09-08T04:23:57.601Z,931.40
2018-09-08T04:24:57.896Z,931.39
2018-09-08T04:25:57.720Z,931.40
2018-09-08T04:26:57.725Z,931.34
2018-09-08T04:27:57.756Z,931.37
2018-09-08T04:28:57.807Z,931.37
2018-09-08T04:29:57.833Z,931.36
2018-09-08T04:30:57.891Z,931.31
2018-09-08T04:31:58.246Z,931.33
2018-09-08T04:32:58.020Z,931.28
2018-09-08T04:33:58.012Z,931.32
2018-09-08T04:34:58.047Z,931.33
2018-09-08T04:35:58.098Z,931.33
2018-09-08T04:36:58.138Z,931.33
2018-09-08T04:37:58.417Z,931.29
2018-09-08T04:38:58.223Z,931.33
2018-09-08T04:39:58.257Z,931.31
2018-09-08T04:40:58.337Z,931.32
2018-09-08T04:41:58.372Z,931.29
2018-09-08T04:42:58.386Z,931.27
2018-09-08T04:43:58.438Z,931.29
2018-09-08T04:44:58.453Z,931.25
2018-09-08T04:45:58.504Z,931.26
2018-09-08T04:46:58.560Z,931.24
2018-09-08T04:47:58.894Z,931.20
2018-09-08T04:48:58.633Z,931.21
2018-09-08T04:49:58.660Z,931.20
2018-09-08T04:50:58.700Z,931.15
2018-09-08T04:51:58.770Z,931.19
2018-09-08T04:52:58.809Z,931.21
2018-09-08T04:53:59.094Z,931.19
2018-09-08T04:54:58.890Z,931.13
2018-09-08T04:55:58.914Z,931.16
2018-09-08T04:56:58.993Z,931.16
2018-09-08T04:57:59.001Z,931.15
2018-09-08T04:58:59.054Z,931.12
2018-09-08T04:59:59.100Z,931.13
2018-09-08T05:00:59.208Z,931.12
2018-09-08T05:01:59.179Z,931.09
2018-09-08T05:02:59.221Z,931.06
2018-09-08T05:03:59.254Z,931.04
2018-09-08T05:04:59.334Z,931.02
2018-09-08T05:05:59.599Z,931.01
2018-09-08T05:06:59.363Z,931.01
2018-09-08T05:07:59.400Z,931.00
2018-09-08T05:08:59.472Z,930.99
2018-09-08T05:09:59.511Z,930.96
2018-09-08T05:10:59.547Z,930.95
2018-09-08T05:11:59.581Z,930.90
2018-09-08T05:12:59.640Z,930.90
2018-09-08T05:13:59.673Z,930.92
2018-09-08T05:14:59.712Z,930.87
2018-09-08T05:15:59.761Z,930.86
2018-09-08T05:16:59.791Z,930.83
2018-09-08T05:18:00.181Z,930.85
2018-09-08T05:18:59.970Z,930.84
2018-09-08T05:19:59.925Z,930.79
2018-09-08T05:20:59.941Z,930.77
2018-09-08T05:22:00.009Z,930.67
2018-09-08T05:23:00.044Z,930.73
2018-09-08T05:24:00.070Z,930.71
2018-09-08T05:25:00.111Z,930.70
2018-09-08T05:26:00.176Z,930.71
2018-09-08T05:27:00.213Z,930.70
2018-09-08T05:28:00.277Z,930.68
2018-09-08T05:29:00.588Z,930.65
2018-09-08T05:30:00.410Z,930.67
2018-09-08T05:31:00.361Z,930.67
2018-09-08T05:32:00.390Z,930.69
2018-09-08T05:33:00.443Z,930.62
2018-09-08T05:34:00.486Z,930.63
2018-09-08T05:35:00.551Z,930.63
2018-09-08T05:36:00.569Z,930.62
2018-09-08T05:37:00.622Z,930.60
2018-09-08T05:38:00.668Z,930.60
2018-09-08T05:39:00.698Z,930.59
2018-09-08T05:40:00.981Z,930.56
2018-09-08T05:41:00.786Z,930.54
2018-09-08T05:42:00.811Z,930.58
2018-09-08T05:43:00.901Z,930.57
2018-09-08T05:44:00.907Z,930.56
2018-09-08T05:45:00.972Z,930.59
2018-09-08T05:46:01.113Z,930.58
2018-09-08T05:47:01.040Z,930.57
2018-09-08T05:48:01.093Z,930.58
2018-09-08T05:49:01.103Z,930.57
2018-09-08T05:50:01.151Z,930.60
2018-09-08T05:51:01.491Z,930.57
2018-09-08T05:52:01.257Z,930.58
2018-09-08T05:53:01.279Z,930.54
2018-09-08T05:54:01.319Z,930.59
2018-09-08T05:55:01.370Z,930.60
2018-09-08T05:56:01.384Z,930.57
2018-09-08T05:57:01.567Z,930.59
2018-09-08T05:58:01.514Z,930.59
2018-09-08T05:59:01.532Z,930.54
2018-09-08T06:00:01.585Z,930.55
2018-09-08T06:01:01.584Z,930.55
2018-09-08T06:02:01.663Z,930.57
2018-09-08T06:03:01.948Z,930.54
2018-09-08T06:04:01.715Z,930.55
2018-09-08T06:05:01.778Z,930.58
2018-09-08T06:06:01.807Z,930.61
2018-09-08T06:07:01.851Z,930.63
2018-09-08T06:08:01.890Z,930.65
2018-09-08T06:09:02.047Z,930.59
2018-09-08T06:10:02.028Z,930.63
2018-09-08T06:11:02.012Z,930.60
2018-09-08T06:12:02.059Z,930.61
2018-09-08T06:13:02.111Z,930.62
2018-09-08T06:14:02.131Z,930.62
2018-09-08T06:15:02.175Z,930.61
2018-09-08T06:16:02.228Z,930.62
2018-09-08T06:17:02.247Z,930.64
2018-09-08T06:18:02.294Z,930.59
2018-09-08T06:19:02.663Z,930.63
2018-09-08T06:20:02.406Z,930.61
2018-09-08T06:21:02.423Z,930.61
2018-09-08T06:22:02.468Z,930.58
2018-09-08T06:23:02.527Z,930.62
2018-09-08T06:24:02.558Z,930.57
2018-09-08T06:25:02.603Z,930.57
2018-09-08T06:26:02.639Z,930.55
2018-09-08T06:27:02.679Z,930.58
2018-09-08T06:28:02.709Z,930.55
2018-09-08T06:29:03.056Z,930.53
2018-09-08T06:30:02.815Z,930.47
2018-09-08T06:31:02.837Z,930.53
2018-09-08T06:32:02.878Z,930.50
2018-09-08T06:33:02.931Z,930.48
2018-09-08T06:34:02.975Z,930.50
2018-09-08T06:35:03.048Z,930.51
2018-09-08T06:36:03.033Z,930.49
2018-09-08T06:37:03.079Z,930.50
2018-09-08T06:38:03.135Z,930.51
2018-09-08T06:39:03.166Z,930.48
2018-09-08T06:40:03.467Z,930.47
2018-09-08T06:41:03.239Z,930.51
2018-09-08T06:42:03.293Z,930.49
2018-09-08T06:43:03.329Z,930.56
2018-09-08T06:44:03.358Z,930.57
2018-09-08T06:45:03.609Z,930.49
2018-09-08T06:46:03.559Z,930.48
2018-09-08T06:47:03.496Z,930.49
2018-09-08T06:48:03.542Z,930.50
2018-09-08T06:49:03.577Z,930.51
2018-09-08T06:50:03.627Z,930.52
2018-09-08T06:51:03.661Z,930.53
2018-09-08T06:52:04.024Z,930.53
2018-09-08T06:53:03.744Z,930.52
2018-09-08T06:54:03.831Z,930.58
2018-09-08T06:55:03.815Z,930.58
2018-09-08T06:56:03.874Z,930.57
2018-09-08T06:57:03.934Z,930.58
2018-09-08T06:58:04.140Z,930.59
2018-09-08T06:59:03.973Z,930.57
2018-09-08T07:00:04.040Z,930.59
2018-09-08T07:01:04.052Z,930.59
2018-09-08T07:02:04.104Z,930.62
2018-09-08T07:03:04.135Z,930.64
2018-09-08T07:04:04.486Z,930.66
2018-09-08T07:05:04.274Z,930.69
2018-09-08T07:06:04.270Z,930.73
2018-09-08T07:07:04.364Z,930.73
2018-09-08T07:08:04.350Z,930.78
2018-09-08T07:09:04.391Z,930.79
2018-09-08T07:10:04.451Z,930.75
2018-09-08T07:11:04.583Z,930.80
2018-09-08T07:12:04.519Z,930.75
2018-09-08T07:13:04.603Z,930.81
2018-09-08T07:14:04.598Z,930.77
2018-09-08T07:15:04.664Z,930.79
2018-09-08T07:16:04.929Z,930.83
2018-09-08T07:17:04.719Z,930.83
2018-09-08T07:18:04.745Z,930.86
2018-09-08T07:19:04.807Z,930.85
2018-09-08T07:20:04.847Z,930.85
2018-09-08T07:21:04.873Z,930.81
2018-09-08T07:22:05.071Z,930.85
2018-09-08T07:23:04.973Z,930.87
2018-09-08T07:24:04.998Z,930.89
2018-09-08T07:25:05.058Z,930.91
2018-09-08T07:26:05.064Z,930.89
2018-09-08T07:27:05.107Z,930.90
2018-09-08T07:28:05.162Z,930.93
2018-09-08T07:29:05.211Z,930.91
2018-09-08T07:30:05.236Z,930.94
2018-09-08T07:31:05.332Z,930.95
2018-09-08T07:32:05.629Z,930.96
2018-09-08T07:33:05.382Z,930.96
2018-09-08T07:34:05.415Z,930.92
2018-09-08T07:35:05.468Z,930.98
2018-09-08T07:36:05.494Z,930.95
2018-09-08T07:37:05.504Z,930.96
2018-09-08T07:38:05.561Z,930.98
2018-09-08T07:39:05.614Z,930.99
2018-09-08T07:40:05.655Z,930.94
2018-09-08T07:41:05.706Z,930.99
2018-09-08T07:42:05.831Z,931.01
2018-09-08T07:43:05.783Z,931.02
2018-09-08T07:44:05.818Z,931.04
2018-09-08T07:45:05.840Z,931.05
2018-09-08T07:46:05.922Z,931.02
2018-09-08T07:47:06.222Z,930.98
2018-09-08T07:48:05.977Z,931.02
2018-09-08T07:49:06.016Z,930.98
2018-09-08T07:50:06.047Z,931.01
2018-09-08T07:51:06.075Z,931.02
2018-09-08T07:52:06.151Z,931.00
2018-09-08T07:53:06.296Z,931.03
2018-09-08T07:54:06.310Z,931.01
2018-09-08T07:55:06.243Z,931.00
2018-09-08T07:56:06.295Z,931.05
2018-09-08T07:57:06.390Z,931.04
2018-09-08T07:58:06.606Z,931.04
2018-09-08T07:59:06.401Z,931.04
2018-09-08T08:00:06.450Z,931.08
2018-09-08T08:01:06.492Z,931.10
2018-09-08T08:02:06.525Z,931.10
2018-09-08T08:03:06.584Z,931.08
2018-09-08T08:04:06.721Z,931.11
2018-09-08T08:05:06.632Z,931.10
2018-09-08T08:06:06.711Z,931.12
2018-09-08T08:07:06.736Z,931.13
2018-09-08T08:08:06.768Z,931.11
2018-09-08T08:09:06.825Z,931.13
2018-09-08T08:10:06.864Z,931.13
2018-09-08T08:11:06.887Z,931.17
2018-09-08T08:12:06.954Z,931.17
2018-09-08T08:13:06.980Z,931.18
2018-09-08T08:14:07.280Z,931.24
2018-09-08T08:15:07.072Z,931.23
2018-09-08T08:16:07.092Z,931.23
2018-09-08T08:17:07.116Z,931.21
2018-09-08T08:18:07.180Z,931.23
2018-09-08T08:19:07.472Z,931.25
2018-09-08T08:20:07.246Z,931.28
2018-09-08T08:21:07.287Z,931.28
2018-09-08T08:22:07.345Z,931.31
2018-09-08T08:23:07.448Z,931.31
2018-09-08T08:24:07.411Z,931.33
2018-09-08T08:25:07.694Z,931.31
2018-09-08T08:26:07.533Z,931.34
2018-09-08T08:27:07.508Z,931.33
2018-09-08T08:28:07.585Z,931.36
2018-09-08T08:29:07.616Z,931.37
2018-09-08T08:30:07.687Z,931.31
2018-09-08T08:31:07.979Z,931.34
2018-09-08T08:32:07.736Z,931.37
2018-09-08T08:33:07.788Z,931.37
2018-09-08T08:34:07.817Z,931.41
2018-09-08T08:35:07.859Z,931.43
2018-09-08T08:36:07.908Z,931.48
2018-09-08T08:37:08.259Z,931.47
2018-09-08T08:38:08.002Z,931.46
2018-09-08T08:39:08.019Z,931.45
2018-09-08T08:40:08.104Z,931.50
2018-09-08T08:41:08.096Z,931.51
2018-09-08T08:42:08.122Z,931.50
2018-09-08T08:43:08.491Z,931.53
2018-09-08T08:44:08.224Z,931.54
2018-09-08T08:45:08.313Z,931.53
2018-09-08T08:46:08.300Z,931.57
2018-09-08T08:47:08.342Z,931.60
2018-09-08T08:48:08.375Z,931.63
2018-09-08T08:49:08.668Z,931.63
2018-09-08T08:50:08.461Z,931.67
2018-09-08T08:51:08.498Z,931.69
2018-09-08T08:52:08.529Z,931.66
2018-09-08T08:53:08.576Z,931.69
2018-09-08T08:54:08.644Z,931.68
2018-09-08T08:55:08.895Z,931.71
2018-09-08T08:56:08.743Z,931.76
2018-09-08T08:57:08.718Z,931.75
2018-09-08T08:58:08.780Z,931.75
2018-09-08T08:59:08.833Z,931.76
2018-09-08T09:00:08.855Z,931.73
2018-09-08T09:01:09.144Z,931.77
2018-09-08T09:02:08.934Z,931.78
2018-09-08T09:03:08.999Z,931.75
2018-09-08T09:04:09.042Z,931.85
2018-09-08T09:05:09.098Z,931.86
2018-09-08T09:06:09.405Z,931.87
2018-09-08T09:07:09.148Z,931.84
2018-09-08T09:08:09.179Z,931.85
2018-09-08T09:09:09.287Z,931.89
2018-09-08T09:10:09.270Z,931.86
2018-09-08T09:11:09.316Z,931.88
2018-09-08T09:12:09.587Z,931.92
2018-09-08T09:13:09.449Z,931.94
2018-09-08T09:14:09.425Z,931.95
2018-09-08T09:15:09.863Z,931.94
2018-09-08T09:16:09.506Z,931.94
2018-09-08T09:17:09.539Z,931.96
2018-09-08T09:18:09.573Z,931.94
2018-09-08T09:19:09.880Z,931.98
2018-09-08T09:20:09.658Z,932.00
2018-09-08T09:21:09.710Z,932.02
2018-09-08T09:22:09.742Z,932.08
2018-09-08T09:23:09.790Z,932.04
2018-09-08T09:24:09.859Z,932.08
2018-09-08T09:25:09.868Z,932.08
2018-09-08T09:26:09.903Z,932.08
2018-09-08T09:27:09.942Z,932.12
2018-09-08T09:28:10.028Z,932.14
2018-09-08T09:29:10.084Z,932.12
2018-09-08T09:30:10.362Z,932.15
2018-09-08T09:31:10.110Z,932.14
2018-09-08T09:32:10.185Z,932.15
2018-09-08T09:33:10.241Z,932.20
2018-09-08T09:34:10.240Z,932.22
2018-09-08T09:35:10.286Z,932.16
2018-09-08T09:36:10.580Z,932.19
2018-09-08T09:37:10.436Z,932.18
2018-09-08T09:38:10.412Z,932.20
2018-09-08T09:39:10.431Z,932.18
2018-09-08T09:40:10.524Z,932.18
2018-09-08T09:41:10.810Z,932.18
2018-09-08T09:42:10.559Z,932.20
2018-09-08T09:43:10.609Z,932.25
2018-09-08T09:44:10.650Z,932.25
2018-09-08T09:45:10.666Z,932.30
2018-09-08T09:46:10.710Z,932.33
2018-09-08T09:47:10.763Z,932.35
2018-09-08T09:48:10.789Z,932.33
2018-09-08T09:49:10.842Z,932.35
2018-09-08T09:50:10.904Z,932.41
2018-09-08T09:51:10.961Z,932.39
2018-09-08T09:52:11.224Z,932.39
2018-09-08T09:53:11.076Z,932.42
2018-09-08T09:54:11.064Z,932.39
2018-09-08T09:55:11.095Z,932.44
2018-09-08T09:56:11.131Z,932.44
2018-09-08T09:57:11.183Z,932.47
2018-09-08T09:58:11.200Z,932.46
2018-09-08T09:59:11.490Z,932.43
2018-09-08T10:00:11.276Z,932.46
2018-09-08T10:01:11.488Z,932.47
2018-09-08T10:02:11.430Z,932.45
2018-09-08T10:03:11.406Z,932.49
2018-09-08T10:04:11.443Z,932.48
2018-09-08T10:05:11.762Z,932.48
2018-09-08T10:06:11.536Z,932.50
2018-09-08T10:07:11.595Z,932.56
2018-09-08T10:08:11.633Z,932.57
2018-09-08T10:09:11.682Z,932.56
2018-09-08T10:10:11.725Z,932.60
2018-09-08T10:11:12.055Z,932.54
2018-09-08T10:12:11.863Z,932.58
2018-09-08T10:13:11.844Z,932.60
2018-09-08T10:14:11.889Z,932.62
2018-09-08T10:15:11.937Z,932.68
2018-09-08T10:16:12.249Z,932.63
2018-09-08T10:17:11.997Z,932.67
2018-09-08T10:18:12.068Z,932.68
2018-09-08T10:19:12.157Z,932.69
2018-09-08T10:20:12.153Z,932.65
2018-09-08T10:21:12.198Z,932.71
2018-09-08T10:22:12.234Z,932.72
2018-09-08T10:23:12.467Z,932.74
2018-09-08T10:24:12.344Z,932.79
2018-09-08T10:25:12.378Z,932.83
2018-09-08T10:26:12.436Z,932.82
2018-09-08T10:27:12.735Z,932.85
2018-09-08T10:28:12.494Z,932.86
2018-09-08T10:29:12.587Z,932.83
2018-09-08T10:30:12.649Z,932.84
2018-09-08T10:31:12.648Z,932.82
2018-09-08T10:32:13.214Z,932.85
2018-09-08T10:33:12.777Z,932.85
2018-09-08T10:34:12.799Z,932.88
2018-09-08T10:35:12.895Z,932.92
2018-09-08T10:36:12.882Z,932.90
2018-09-08T10:37:13.240Z,932.91
2018-09-08T10:38:12.987Z,932.97
2018-09-08T10:39:13.026Z,932.93
2018-09-08T10:40:13.148Z,932.97
2018-09-08T10:41:13.114Z,932.98
2018-09-08T10:42:13.182Z,932.94
2018-09-08T10:43:13.191Z,932.97
2018-09-08T10:44:13.273Z,932.94
2018-09-08T10:45:13.307Z,932.95
2018-09-08T10:46:13.366Z,932.97
2018-09-08T10:47:13.420Z,932.93
2018-09-08T10:48:13.676Z,932.95
2018-09-08T10:49:13.532Z,933.00
2018-09-08T10:50:13.545Z,932.96
2018-09-08T10:51:13.594Z,933.00
2018-09-08T10:52:13.686Z,933.02
2018-09-08T10:53:13.677Z,933.03
2018-09-08T10:54:13.725Z,933.03
2018-09-08T10:55:14.080Z,933.00
2018-09-08T10:56:13.832Z,932.99
2018-09-08T10:57:13.867Z,932.93
2018-09-08T10:58:13.963Z,932.99
2018-09-08T10:59:13.980Z,933.01
2018-09-08T11:00:14.022Z,933.01
2018-09-08T11:01:14.314Z,932.99
2018-09-08T11:02:14.535Z,933.00
2018-09-08T11:03:14.203Z,933.00
2018-09-08T11:04:14.217Z,932.99
2018-09-08T11:05:14.252Z,933.04
2018-09-08T11:06:14.342Z,933.03
2018-09-08T11:07:14.356Z,933.06
2018-09-08T11:08:14.405Z,933.07
2018-09-08T11:09:14.443Z,933.11
2018-09-08T11:10:14.480Z,933.12
2018-09-08T11:11:14.783Z,933.12
2018-09-08T11:12:14.586Z,933.13
2018-09-08T11:13:14.642Z,933.20
2018-09-08T11:14:14.684Z,933.21
2018-09-08T11:15:14.703Z,933.20
2018-09-08T11:16:14.764Z,933.25
2018-09-08T11:17:15.075Z,933.20
2018-09-08T11:18:14.847Z,933.23
2018-09-08T11:19:14.898Z,933.22
2018-09-08T11:20:14.943Z,933.22
2018-09-08T11:21:14.990Z,933.22
2018-09-08T11:22:15.305Z,933.18
2018-09-08T11:23:15.106Z,933.18
2018-09-08T11:24:15.133Z,933.17
2018-09-08T11:25:15.181Z,933.19
2018-09-08T11:26:15.226Z,933.26
2018-09-08T11:27:15.278Z,933.25
2018-09-08T11:28:15.314Z,933.29
2018-09-08T11:29:15.389Z,933.27
2018-09-08T11:30:15.407Z,933.22
2018-09-08T11:31:15.477Z,933.24
2018-09-08T11:32:15.518Z,933.20
2018-09-08T11:33:15.829Z,933.25
2018-09-08T11:34:15.625Z,933.26
2018-09-08T11:35:15.651Z,933.22
2018-09-08T11:36:15.713Z,933.29
2018-09-08T11:37:15.749Z,933.28
2018-09-08T11:38:15.909Z,933.24
2018-09-08T11:39:15.835Z,933.18
2018-09-08T11:40:15.900Z,933.22
2018-09-08T11:41:15.930Z,933.22
2018-09-08T11:42:16.033Z,933.19
2018-09-08T11:43:16.035Z,933.22
2018-09-08T11:44:16.342Z,933.18
2018-09-08T11:45:16.129Z,933.29
2018-09-08T11:46:16.195Z,933.23
2018-09-08T11:47:16.213Z,933.23
2018-09-08T11:48:16.321Z,933.26
2018-09-08T11:49:16.334Z,933.19
2018-09-08T11:50:16.371Z,933.17
2018-09-08T11:51:16.679Z,933.20
2018-09-08T11:52:16.446Z,933.21
2018-09-08T11:53:16.516Z,933.20
2018-09-08T11:54:16.580Z,933.18
2018-09-08T11:55:16.628Z,933.19
2018-09-08T11:56:17.004Z,933.10
2018-09-08T11:57:16.730Z,933.20
2018-09-08T11:58:16.764Z,933.25
2018-09-08T11:59:16.825Z,933.23
2018-09-08T12:00:16.909Z,933.27
2018-09-08T12:01:16.923Z,933.26
2018-09-08T12:02:17.036Z,933.27
2018-09-08T12:03:17.337Z,933.27
2018-09-08T12:04:17.110Z,933.30
2018-09-08T12:05:17.139Z,933.33
2018-09-08T12:06:17.220Z,933.29
2018-09-08T12:07:17.235Z,933.34
2018-09-08T12:08:17.281Z,933.42
2018-09-08T12:09:17.587Z,933.39
2018-09-08T12:10:17.400Z,933.38
2018-09-08T12:11:17.487Z,933.41
2018-09-08T12:12:17.493Z,933.37
2018-09-08T12:13:17.526Z,933.39
2018-09-08T12:14:17.611Z,933.39
2018-09-08T12:15:17.941Z,933.40
2018-09-08T12:16:17.722Z,933.45
2018-09-08T12:17:17.741Z,933.43
2018-09-08T12:18:17.827Z,933.37
2018-09-08T12:19:17.854Z,933.41
2018-09-08T12:20:17.914Z,933.44
2018-09-08T12:21:18.216Z,933.40
2018-09-08T12:22:18.119Z,933.38
2018-09-08T12:23:18.087Z,933.43
2018-09-08T12:24:18.128Z,933.37
2018-09-08T12:25:18.184Z,933.36
2018-09-08T12:26:18.235Z,933.38
2018-09-08T12:27:18.533Z,933.42
2018-09-08T12:28:18.376Z,933.43
2018-09-08T12:29:18.395Z,933.45